createdAt,value
2019-04-12T00:00:33.709Z,27.90
2019-04-12T00:03:02.804Z,28.07
2019-04-12T00:05:32.260Z,28.40
2019-04-12T00:08:02.074Z,28.07
2019-04-12T00:10:30.823Z,26.37
2019-04-12T00:12:59.536Z,27.33
2019-04-12T00:15:28.229Z,26.53
2019-04-12T00:17:56.869Z,28.10
2019-04-12T00:20:26.077Z,28.80
2019-04-12T00:22:54.750Z,28.10
2019-04-12T00:25:23.458Z,25.73
2019-04-12T00:27:52.365Z,27.90
2019-04-12T00:30:21.984Z,25.87
2019-04-12T00:32:51.634Z,27.27
2019-04-12T00:35:22.201Z,27.30
2019-04-12T00:37:55.378Z,27.80
2019-04-12T00:40:21.597Z,27.37
2019-04-12T00:42:50.255Z,27.70
2019-04-12T00:45:19.046Z,27.07
2019-04-12T00:47:47.721Z,28.50
2019-04-12T00:50:16.345Z,27.83
2019-04-12T00:52:45.129Z,28.50
2019-04-12T00:55:13.761Z,27.00
2019-04-12T00:57:45.162Z,29.70
2019-04-12T01:00:15.528Z,30.20
2019-04-12T01:02:46.042Z,26.90
2019-04-12T01:05:22.803Z,28.43
2019-04-12T01:08:08.492Z,30.07
2019-04-12T01:10:39.678Z,28.50
2019-04-12T01:13:08.954Z,26.17
2019-04-12T01:15:38.772Z,26.80
2019-04-12T01:18:07.871Z,27.87
2019-04-12T01:20:37.368Z,26.30
2019-04-12T01:23:10.307Z,26.90
2019-04-12T01:25:37.544Z,28.23
2019-04-12T01:28:06.155Z,29.90
2019-04-12T01:30:34.836Z,30.57
2019-04-12T01:33:03.612Z,27.67
2019-04-12T01:35:33.881Z,26.90
2019-04-12T01:38:02.581Z,33.97
2019-04-12T01:40:31.238Z,30.50
2019-04-12T01:42:59.929Z,28.43
2019-04-12T01:45:28.683Z,29.67
2019-04-12T01:47:57.318Z,29.83
2019-04-12T01:50:26.032Z,29.27
2019-04-12T01:52:54.665Z,28.37
2019-04-12T01:55:23.343Z,28.80
2019-04-12T01:57:51.986Z,31.23
2019-04-12T02:00:20.708Z,27.93
2019-04-12T02:02:49.325Z,30.13
2019-04-12T02:05:19.256Z,32.40
2019-04-12T02:07:48.032Z,29.67
2019-04-12T02:10:16.721Z,30.23
2019-04-12T02:12:45.336Z,30.50
2019-04-12T02:15:14.327Z,27.70
2019-04-12T02:17:42.946Z,28.13
2019-04-12T02:20:11.932Z,28.73
2019-04-12T02:22:40.573Z,28.77
2019-04-12T02:25:20.163Z,28.80
2019-04-12T02:27:39.971Z,29.47
2019-04-12T02:30:11.000Z,30.97
2019-04-12T02:32:51.769Z,27.13
2019-04-12T02:35:40.282Z,29.10
2019-04-12T02:38:10.076Z,27.40
2019-04-12T02:40:40.194Z,29.00
2019-04-12T02:43:10.248Z,25.00
2019-04-12T02:45:43.433Z,28.23
2019-04-12T02:48:18.179Z,28.30
2019-04-12T02:50:52.382Z,30.23
2019-04-12T02:53:39.603Z,27.67
2019-04-12T02:56:26.155Z,28.30
2019-04-12T02:58:57.356Z,30.87
2019-04-12T03:01:27.466Z,28.00
2019-04-12T03:03:56.781Z,27.37
2019-04-12T03:06:25.542Z,29.70
2019-04-12T03:08:54.228Z,30.83
2019-04-12T03:11:23.876Z,28.43
2019-04-12T03:13:54.034Z,27.30
2019-04-12T03:16:23.021Z,29.20
2019-04-12T03:18:51.649Z,28.60
2019-04-12T03:21:20.273Z,30.57
2019-04-12T03:23:48.978Z,29.30
2019-04-12T03:26:17.689Z,30.27
2019-04-12T03:28:48.411Z,29.80
2019-04-12T03:31:17.136Z,31.47
2019-04-12T03:33:45.752Z,28.90
2019-04-12T03:36:14.424Z,31.00
2019-04-12T03:38:43.129Z,30.50
2019-04-12T03:41:12.440Z,28.93
2019-04-12T03:43:42.290Z,29.20
2019-04-12T03:46:11.298Z,30.87
2019-04-12T03:48:40.094Z,28.97
2019-04-12T03:51:08.934Z,30.50
2019-04-12T03:53:38.101Z,28.23
2019-04-12T03:56:08.682Z,27.97
2019-04-12T03:58:37.279Z,29.73
2019-04-12T04:01:06.208Z,27.60
2019-04-12T04:03:35.358Z,26.83
2019-04-12T04:06:04.090Z,27.37
2019-04-12T04:08:33.760Z,26.60
2019-04-12T04:11:02.574Z,26.87
2019-04-12T04:13:31.712Z,28.00
2019-04-12T04:16:02.798Z,27.40
2019-04-12T04:18:32.226Z,28.37
2019-04-12T04:21:18.791Z,29.83
2019-04-12T04:24:05.038Z,27.80
2019-04-12T04:26:35.534Z,29.10
2019-04-12T04:29:17.771Z,24.73
2019-04-12T04:31:54.615Z,24.40
2019-04-12T04:34:23.435Z,21.47
2019-04-12T04:36:52.108Z,20.30
2019-04-12T04:39:21.094Z,19.57
2019-04-12T04:41:49.904Z,23.43
2019-04-12T04:44:18.955Z,24.47
2019-04-12T04:46:47.940Z,28.97
2019-04-12T04:49:17.913Z,26.73
2019-04-12T04:51:46.925Z,25.00
2019-04-12T04:54:15.546Z,24.90
2019-04-12T04:56:44.620Z,23.37
2019-04-12T04:59:13.302Z,22.10
2019-04-12T05:01:42.202Z,20.40
2019-04-12T05:04:11.290Z,19.80
2019-04-12T05:06:40.315Z,20.43
2019-04-12T05:09:09.132Z,19.70
2019-04-12T05:11:38.210Z,19.17
2019-04-12T05:14:07.229Z,20.10
2019-04-12T05:16:35.944Z,20.27
2019-04-12T05:19:04.637Z,18.33
2019-04-12T05:21:33.273Z,19.90
2019-04-12T05:24:02.474Z,22.53
2019-04-12T05:26:31.461Z,18.70
2019-04-12T05:29:00.205Z,19.43
2019-04-12T05:31:29.391Z,19.50
2019-04-12T05:33:58.205Z,20.20
2019-04-12T05:36:26.894Z,20.30
2019-04-12T05:38:55.542Z,20.00
2019-04-12T05:41:24.256Z,19.77
2019-04-12T05:43:54.450Z,18.90
2019-04-12T05:46:41.269Z,19.60
2019-04-12T05:49:32.271Z,20.73
2019-04-12T05:52:00.947Z,20.67
2019-04-12T05:54:29.565Z,20.07
2019-04-12T05:56:58.475Z,19.50
2019-04-12T05:59:41.061Z,19.10
2019-04-12T06:02:12.061Z,21.40
2019-04-12T06:04:40.782Z,20.40
2019-04-12T06:07:09.419Z,19.80
2019-04-12T06:09:38.082Z,20.87
2019-04-12T06:12:06.764Z,19.10
2019-04-12T06:14:35.549Z,21.27
2019-04-12T06:17:04.201Z,18.00
2019-04-12T06:19:33.667Z,20.00
2019-04-12T06:22:03.878Z,18.87
2019-04-12T06:24:32.700Z,20.60
2019-04-12T06:27:18.189Z,21.23
2019-04-12T06:29:46.832Z,20.30
2019-04-12T06:32:15.536Z,23.10
2019-04-12T06:34:44.245Z,20.80
2019-04-12T06:37:12.950Z,25.07
2019-04-12T06:39:42.372Z,17.70
2019-04-12T06:42:11.024Z,21.53
2019-04-12T06:44:39.736Z,20.10
2019-04-12T06:47:08.357Z,20.47
2019-04-12T06:49:37.185Z,18.00
2019-04-12T06:52:08.665Z,20.93
2019-04-12T06:54:37.422Z,19.00
2019-04-12T06:57:22.717Z,23.00
2019-04-12T06:59:45.641Z,21.40
2019-04-12T07:02:18.646Z,19.03
2019-04-12T07:04:48.863Z,19.70
2019-04-12T07:07:17.608Z,19.27
2019-04-12T07:09:46.290Z,18.40
2019-04-12T07:12:14.938Z,19.90
2019-04-12T07:14:43.642Z,21.40
2019-04-12T07:17:12.338Z,19.20
2019-04-12T07:19:41.021Z,22.10
2019-04-12T07:22:09.654Z,24.93
2019-04-12T07:24:38.373Z,19.07
2019-04-12T07:27:07.054Z,22.80
2019-04-12T07:29:35.782Z,18.07
2019-04-12T07:32:04.440Z,18.80
2019-04-12T07:34:33.077Z,19.20
2019-04-12T07:37:01.755Z,23.10
2019-04-12T07:39:30.416Z,19.07
2019-04-12T07:41:59.115Z,21.13
2019-04-12T07:44:27.769Z,19.27
2019-04-12T07:46:56.447Z,17.47
2019-04-12T07:49:25.126Z,16.33
2019-04-12T07:51:55.421Z,19.93
2019-04-12T07:54:40.780Z,16.93
2019-04-12T07:57:23.022Z,17.00
2019-04-12T07:59:51.706Z,17.90
2019-04-12T08:02:22.358Z,18.00
2019-04-12T08:05:08.720Z,18.30
2019-04-12T08:07:51.309Z,16.80
2019-04-12T08:10:20.010Z,25.20
2019-04-12T08:12:48.644Z,15.77
2019-04-12T08:15:17.328Z,15.80
2019-04-12T08:17:45.958Z,15.93
2019-04-12T08:20:14.682Z,16.23
2019-04-12T08:22:43.364Z,14.07
2019-04-12T08:25:12.045Z,15.63
2019-04-12T08:27:40.738Z,14.57
2019-04-12T08:30:10.095Z,16.97
2019-04-12T08:32:38.954Z,18.20
2019-04-12T08:35:08.354Z,17.37
2019-04-12T08:37:37.092Z,24.17
2019-04-12T08:40:07.987Z,14.67
2019-04-12T08:42:36.692Z,13.97
2019-04-12T08:45:06.817Z,16.10
2019-04-12T08:47:35.527Z,13.93
2019-04-12T08:50:06.206Z,14.13
2019-04-12T08:52:34.913Z,14.57
2019-04-12T08:55:04.541Z,18.90
2019-04-12T08:57:33.239Z,16.00
2019-04-12T09:00:01.920Z,17.50
2019-04-12T09:02:30.597Z,18.57
2019-04-12T09:04:59.267Z,17.87
2019-04-12T09:07:28.088Z,15.10
2019-04-12T09:09:56.729Z,15.73
2019-04-12T09:12:25.528Z,14.30
2019-04-12T09:14:54.265Z,17.13
2019-04-12T09:17:23.033Z,14.00
2019-04-12T09:19:53.314Z,16.90
2019-04-12T09:22:29.425Z,14.80
2019-04-12T09:25:05.445Z,15.90
2019-04-12T09:27:34.299Z,16.00
2019-04-12T09:30:03.234Z,15.63
2019-04-12T09:32:31.957Z,17.90
2019-04-12T09:35:00.679Z,17.03
2019-04-12T09:37:30.921Z,18.57
2019-04-12T09:39:59.607Z,15.47
2019-04-12T09:42:28.229Z,16.47
2019-04-12T09:44:56.916Z,19.40
2019-04-12T09:47:25.563Z,21.40
2019-04-12T09:49:54.326Z,19.33
2019-04-12T09:52:23.015Z,19.97
2019-04-12T09:54:51.822Z,16.53
2019-04-12T09:57:20.511Z,18.00
2019-04-12T09:59:49.302Z,19.20
2019-04-12T10:02:17.996Z,16.83
2019-04-12T10:04:48.214Z,18.27
2019-04-12T10:07:16.931Z,18.20
2019-04-12T10:09:45.556Z,17.77
2019-04-12T10:12:14.250Z,19.37
2019-04-12T10:14:42.867Z,19.00
2019-04-12T10:17:11.672Z,19.10
2019-04-12T10:19:40.353Z,16.90
2019-04-12T10:22:09.289Z,15.70
2019-04-12T10:24:37.937Z,20.77
2019-04-12T10:27:06.589Z,17.30
2019-04-12T10:29:36.667Z,16.67
2019-04-12T10:32:07.905Z,18.87
2019-04-12T10:34:36.601Z,21.70
2019-04-12T10:37:05.308Z,16.17
2019-04-12T10:39:35.572Z,14.60
2019-04-12T10:42:06.362Z,15.70
2019-04-12T10:44:36.633Z,17.37
2019-04-12T10:47:23.219Z,17.27
2019-04-12T10:50:05.465Z,16.43
2019-04-12T10:52:35.678Z,17.00
2019-04-12T10:55:12.155Z,15.03
2019-04-12T10:57:40.788Z,18.47
2019-04-12T11:00:10.788Z,16.60
2019-04-12T11:02:39.395Z,16.63
2019-04-12T11:05:08.140Z,14.30
2019-04-12T11:07:36.847Z,16.80
2019-04-12T11:10:07.373Z,17.37
2019-04-12T11:12:36.093Z,17.80
2019-04-12T11:15:04.899Z,17.00
2019-04-12T11:17:33.639Z,18.30
2019-04-12T11:20:02.258Z,16.70
2019-04-12T11:22:33.039Z,15.90
2019-04-12T11:25:01.297Z,15.27
2019-04-12T11:27:29.956Z,15.90
2019-04-12T11:29:58.753Z,18.43
2019-04-12T11:32:27.380Z,16.33
2019-04-12T11:34:56.219Z,16.93
2019-04-12T11:37:25.167Z,17.13
2019-04-12T11:39:53.836Z,17.90
2019-04-12T11:42:22.537Z,26.27
2019-04-12T11:44:51.231Z,19.80
2019-04-12T11:47:19.912Z,17.40
2019-04-12T11:49:48.663Z,15.47
2019-04-12T11:52:17.276Z,16.07
2019-04-12T11:54:45.969Z,15.33
2019-04-12T11:57:14.665Z,14.37
2019-04-12T11:59:43.328Z,16.07
2019-04-12T12:02:29.861Z,15.53
2019-04-12T12:05:00.110Z,15.37
2019-04-12T12:07:49.485Z,17.63
2019-04-12T12:10:28.875Z,18.60
2019-04-12T12:12:59.084Z,16.20
2019-04-12T12:15:41.244Z,17.17
2019-04-12T12:18:11.499Z,15.53
2019-04-12T12:20:40.126Z,18.53
2019-04-12T12:23:08.829Z,16.00
2019-04-12T12:25:37.451Z,15.20
2019-04-12T12:28:06.159Z,15.00
2019-04-12T12:30:34.796Z,14.60
2019-04-12T12:33:03.435Z,16.03
2019-04-12T12:35:33.851Z,17.10
2019-04-12T12:38:02.692Z,15.23
2019-04-12T12:40:31.339Z,16.50
2019-04-12T12:43:00.036Z,16.37
2019-04-12T12:45:28.694Z,16.60
2019-04-12T12:47:57.322Z,16.47
2019-04-12T12:50:26.063Z,16.83
2019-04-12T12:52:54.686Z,17.47
2019-04-12T12:55:23.418Z,15.80
2019-04-12T12:57:52.257Z,16.07
2019-04-12T13:00:20.985Z,17.60
2019-04-12T13:02:49.607Z,16.33
2019-04-12T13:05:18.293Z,16.67
2019-04-12T13:07:46.981Z,18.10
2019-04-12T13:10:15.609Z,15.70
2019-04-12T13:12:44.280Z,17.07
2019-04-12T13:15:12.989Z,19.43
2019-04-12T13:17:41.676Z,17.37
2019-04-12T13:20:10.526Z,18.10
2019-04-12T13:22:40.993Z,17.40
2019-04-12T13:25:09.690Z,20.00
2019-04-12T13:27:38.361Z,17.67
2019-04-12T13:30:25.126Z,18.30
2019-04-12T13:33:01.181Z,19.77
2019-04-12T13:35:31.475Z,18.00
2019-04-12T13:38:07.703Z,19.00
2019-04-12T13:40:38.014Z,17.57
2019-04-12T13:43:08.293Z,18.90
2019-04-12T13:45:37.071Z,17.17
2019-04-12T13:48:06.231Z,20.10
2019-04-12T13:50:34.954Z,20.33
2019-04-12T13:53:03.744Z,19.73
2019-04-12T13:55:32.399Z,18.80
2019-04-12T13:58:01.064Z,20.37
2019-04-12T14:00:29.790Z,22.10
2019-04-12T14:02:58.412Z,17.03
2019-04-12T14:05:27.120Z,19.57
2019-04-12T14:07:58.683Z,20.20
2019-04-12T14:10:27.346Z,18.33
2019-04-12T14:13:02.386Z,19.33
2019-04-12T14:15:26.927Z,19.87
2019-04-12T14:17:55.880Z,17.60
2019-04-12T14:20:24.937Z,17.73
2019-04-12T14:22:54.569Z,20.33
2019-04-12T14:25:23.434Z,17.67
2019-04-12T14:27:52.153Z,18.07
2019-04-12T14:30:32.695Z,21.73
2019-04-12T14:32:54.373Z,20.37
2019-04-12T14:35:30.619Z,21.67
2019-04-12T14:38:00.881Z,20.40
2019-04-12T14:40:41.980Z,24.30
2019-04-12T14:43:01.581Z,20.43
2019-04-12T14:45:48.324Z,22.47
2019-04-12T14:48:18.857Z,20.13
2019-04-12T14:50:47.601Z,17.17
2019-04-12T14:53:17.851Z,19.57
2019-04-12T14:55:46.492Z,19.80
2019-04-12T14:58:15.176Z,19.87
2019-04-12T15:00:45.952Z,21.67
2019-04-12T15:03:14.849Z,22.03
2019-04-12T15:05:43.468Z,20.73
2019-04-12T15:08:12.163Z,21.80
2019-04-12T15:10:45.283Z,24.77
2019-04-12T15:13:14.154Z,20.00
2019-04-12T15:15:42.789Z,20.37
2019-04-12T15:18:11.492Z,24.57
2019-04-12T15:20:40.105Z,19.00
2019-04-12T15:23:08.822Z,21.70
2019-04-12T15:25:37.588Z,21.17
2019-04-12T15:28:07.510Z,17.77
2019-04-12T15:30:36.204Z,20.37
2019-04-12T15:33:05.008Z,19.37
2019-04-12T15:35:33.731Z,22.13
2019-04-12T15:38:03.794Z,19.67
2019-04-12T15:40:32.468Z,19.90
2019-04-12T15:43:01.899Z,21.47
2019-04-12T15:45:30.644Z,21.30
2019-04-12T15:47:59.668Z,18.80
2019-04-12T15:50:28.319Z,20.80
2019-04-12T15:52:56.967Z,19.53
2019-04-12T15:55:28.057Z,19.53
2019-04-12T15:57:56.160Z,21.40
2019-04-12T16:00:34.441Z,21.23
2019-04-12T16:03:03.264Z,20.73
2019-04-12T16:05:31.971Z,20.70
2019-04-12T16:08:01.001Z,18.20
2019-04-12T16:10:29.690Z,18.90
2019-04-12T16:13:10.271Z,22.70
2019-04-12T16:16:03.226Z,21.77
2019-04-12T16:18:31.908Z,22.50
2019-04-12T16:21:00.779Z,25.33
2019-04-12T16:23:29.408Z,22.53
2019-04-12T16:25:58.048Z,25.03
2019-04-12T16:28:31.388Z,20.23
2019-04-12T16:31:23.165Z,22.83
2019-04-12T16:33:57.822Z,23.83
2019-04-12T16:36:28.045Z,26.10
2019-04-12T16:38:56.755Z,24.50
2019-04-12T16:41:26.104Z,27.70
2019-04-12T16:43:54.805Z,26.33
2019-04-12T16:46:33.855Z,33.00
2019-04-12T16:48:53.947Z,23.90
2019-04-12T16:51:22.647Z,27.80
2019-04-12T16:53:51.430Z,25.27
2019-04-12T16:56:20.141Z,25.23
2019-04-12T16:58:48.889Z,36.20
2019-04-12T17:01:17.665Z,18.57
2019-04-12T17:03:46.408Z,31.33
2019-04-12T17:06:15.057Z,27.60
2019-04-12T17:08:44.159Z,25.80
2019-04-12T17:11:12.793Z,28.37
2019-04-12T17:13:42.985Z,19.73
2019-04-12T17:16:13.183Z,28.37
2019-04-12T17:18:42.672Z,22.33
2019-04-12T17:21:11.343Z,20.67
2019-04-12T17:23:41.581Z,22.33
2019-04-12T17:26:10.319Z,22.43
2019-04-12T17:28:38.982Z,22.93
2019-04-12T17:31:09.302Z,20.87
2019-04-12T17:33:38.046Z,17.97
2019-04-12T17:36:06.722Z,21.87
2019-04-12T17:38:35.496Z,20.60
2019-04-12T17:41:04.178Z,20.00
2019-04-12T17:43:32.816Z,19.80
2019-04-12T17:46:01.514Z,18.90
2019-04-12T17:48:50.131Z,24.93
2019-04-12T17:51:35.787Z,20.97
2019-04-12T17:54:22.498Z,20.67
2019-04-12T17:56:51.206Z,20.30
2019-04-12T17:59:19.857Z,19.13
2019-04-12T18:02:01.791Z,17.90
2019-04-12T18:04:24.521Z,20.37
2019-04-12T18:06:53.162Z,19.37
2019-04-12T18:09:21.874Z,19.60
2019-04-12T18:11:50.548Z,21.90
2019-04-12T18:14:19.281Z,22.17
2019-04-12T18:16:50.935Z,20.70
2019-04-12T18:19:18.362Z,22.43
2019-04-12T18:21:47.129Z,20.50
2019-04-12T18:24:17.628Z,22.63
2019-04-12T18:26:46.294Z,20.97
2019-04-12T18:29:15.022Z,22.60
2019-04-12T18:31:43.724Z,21.43
2019-04-12T18:34:12.415Z,21.07
2019-04-12T18:36:43.850Z,20.20
2019-04-12T18:39:13.144Z,19.17
2019-04-12T18:41:41.881Z,18.23
2019-04-12T18:44:12.223Z,19.57
2019-04-12T18:46:40.940Z,20.50
2019-04-12T18:49:09.633Z,18.37
2019-04-12T18:51:38.437Z,28.27
2019-04-12T18:54:07.179Z,21.33
2019-04-12T18:56:35.877Z,20.07
2019-04-12T18:59:04.564Z,19.60
2019-04-12T19:01:33.264Z,18.97
2019-04-12T19:04:01.952Z,19.97
2019-04-12T19:06:31.134Z,17.83
2019-04-12T19:08:59.822Z,19.53
2019-04-12T19:11:28.534Z,86.87
2019-04-12T19:13:57.347Z,91.13
2019-04-12T19:16:26.175Z,19.97
2019-04-12T19:18:54.844Z,20.43
2019-04-12T19:21:26.053Z,19.77
2019-04-12T19:23:55.206Z,18.77
2019-04-12T19:26:25.402Z,20.20
2019-04-12T19:28:54.123Z,19.30
2019-04-12T19:31:27.150Z,19.23
2019-04-12T19:33:57.405Z,17.40
2019-04-12T19:36:42.677Z,15.77
2019-04-12T19:39:19.047Z,18.47
2019-04-12T19:41:49.322Z,19.97
2019-04-12T19:44:17.955Z,16.70
2019-04-12T19:46:46.752Z,17.13
2019-04-12T19:49:15.422Z,15.70
2019-04-12T19:51:44.140Z,16.30
2019-04-12T19:54:12.834Z,15.13
2019-04-12T19:56:41.562Z,15.13
2019-04-12T19:59:10.272Z,15.43
2019-04-12T20:01:39.001Z,14.93
2019-04-12T20:04:07.657Z,16.20
2019-04-12T20:06:36.408Z,15.63
2019-04-12T20:09:07.629Z,15.20
2019-04-12T20:11:37.033Z,16.70
2019-04-12T20:14:06.006Z,15.43
2019-04-12T20:16:34.641Z,16.07
2019-04-12T20:19:03.342Z,16.60
2019-04-12T20:21:32.082Z,15.13
2019-04-12T20:24:00.732Z,14.43
2019-04-12T20:26:30.401Z,13.63
2019-04-12T20:28:59.455Z,14.03
2019-04-12T20:31:28.177Z,14.73
2019-04-12T20:33:56.886Z,12.97
2019-04-12T20:36:27.253Z,13.87
2019-04-12T20:38:56.132Z,15.80
2019-04-12T20:41:24.789Z,14.37
2019-04-12T20:43:55.103Z,14.97
2019-04-12T20:46:23.760Z,15.23
2019-04-12T20:48:52.935Z,15.60
2019-04-12T20:51:21.641Z,15.20
2019-04-12T20:53:50.358Z,18.40
2019-04-12T20:56:19.008Z,15.73
2019-04-12T20:58:47.767Z,15.80
2019-04-12T21:01:16.835Z,16.70
2019-04-12T21:03:46.591Z,13.60
2019-04-12T21:06:15.214Z,13.50
2019-04-12T21:08:43.914Z,14.50
2019-04-12T21:11:12.607Z,15.13
2019-04-12T21:13:52.820Z,15.37
2019-04-12T21:16:21.579Z,15.77
2019-04-12T21:18:51.617Z,14.30
2019-04-12T21:21:20.432Z,14.00
2019-04-12T21:23:49.082Z,13.97
2019-04-12T21:26:17.749Z,14.00
2019-04-12T21:28:46.490Z,14.93
2019-04-12T21:31:15.259Z,13.57
2019-04-12T21:33:43.973Z,13.40
2019-04-12T21:36:12.747Z,16.07
2019-04-12T21:38:41.436Z,13.20
2019-04-12T21:41:10.091Z,13.50
2019-04-12T21:43:38.781Z,14.57
2019-04-12T21:46:19.217Z,15.80
2019-04-12T21:48:39.413Z,13.97
2019-04-12T21:51:08.073Z,13.10
2019-04-12T21:53:36.757Z,12.37
2019-04-12T21:56:05.374Z,13.40
2019-04-12T21:58:34.153Z,14.60
2019-04-12T22:01:06.284Z,16.97
2019-04-12T22:03:40.970Z,15.27
2019-04-12T22:06:05.869Z,13.23
2019-04-12T22:08:34.550Z,14.67
2019-04-12T22:11:03.786Z,14.63
2019-04-12T22:13:34.036Z,15.23
2019-04-12T22:16:02.737Z,15.43
2019-04-12T22:18:31.457Z,14.07
2019-04-12T22:21:00.076Z,14.53
2019-04-12T22:23:29.726Z,16.90
2019-04-12T22:25:58.546Z,15.03
2019-04-12T22:28:27.178Z,16.60
2019-04-12T22:30:56.796Z,15.20
2019-04-12T22:33:25.410Z,14.93
2019-04-12T22:35:54.094Z,15.30
2019-04-12T22:38:22.718Z,15.10
2019-04-12T22:40:51.402Z,14.63
2019-04-12T22:43:20.027Z,14.10
2019-04-12T22:45:48.758Z,15.90
2019-04-12T22:48:17.384Z,13.03
2019-04-12T22:50:46.033Z,14.53
2019-04-12T22:53:14.726Z,14.50
2019-04-12T22:55:44.986Z,14.07
2019-04-12T22:58:13.638Z,15.20
2019-04-12T23:00:42.315Z,13.70
2019-04-12T23:03:11.015Z,14.33
2019-04-12T23:05:39.725Z,14.70
2019-04-12T23:08:08.427Z,14.40
2019-04-12T23:10:37.661Z,15.67
2019-04-12T23:13:06.375Z,13.60
2019-04-12T23:15:35.000Z,14.30
2019-04-12T23:18:03.701Z,14.53
2019-04-12T23:20:32.308Z,13.97
2019-04-12T23:23:01.009Z,15.20
2019-04-12T23:25:29.627Z,15.27
2019-04-12T23:27:58.300Z,15.50
2019-04-12T23:30:35.018Z,14.13
2019-04-12T23:33:03.697Z,15.00
2019-04-12T23:35:33.965Z,15.37
2019-04-12T23:38:02.688Z,16.00
2019-04-12T23:40:31.295Z,13.60
2019-04-12T23:42:59.996Z,14.87
2019-04-12T23:45:28.904Z,14.80
2019-04-12T23:47:57.630Z,13.97
2019-04-12T23:50:26.357Z,14.30
2019-04-12T23:52:55.052Z,14.80
2019-04-12T23:55:23.671Z,14.43
2019-04-12T23:57:52.473Z,12.77
